Главная страница
METAR-TAF:

METAR-TAF

Аэропорты :

Хельсинки-Вантаа

Хельсинки, Финляндия

широта: 60-19N, долгота: 024-58E, высота над уровнем моря: 51 м

Текущие метеонаблюдения

Эта сводка был подготовлена 9 минут назад, в 06:50 UTC
Ветер 8 Узел от западный, изменяющийся между западный-юго-западный и западно-северо-западный
Температура 21°C
Влажность 56%
Давление 1013 hPa
Видимость 10 км и более
Нет облачности ниже 1500 м, и нет кучево-дождевой облачности

METAR: EFHK 180650Z 27008KT 240V300 CAVOK 21/12 Q1013 NOSIG

Время: 09:59 (06:59 UTC)

Прогноз

Эта сводка был подготовлена 1 час и 32 минут назад, в 05:27 UTC
Прогноз действительный с 18-го 06 UTC до 19-го 06 UTC
Ветер 12 Узел от западный
Видимость 10 км и более
Нет облачности ниже 1500 м, и нет кучево-дождевой облачности

TAF: EFHK 180527Z 1806/1906 27012KT CAVOK

Метеонаблюдения и прогнозы для более 4000 аэропортов (сводки METAR и TAF).

Имеющиеся станции представлены на карте желтыми и красными точками.

Чтобы увидеть название станции, наведите на нее мышь.

Затем щелкните, чтобы увидеть метеонаблюдения и метеопрогнозы.

Управление картой: чтобы увеличить масштаб, щелкните зеленые кнопки с черным крестиком; чтобы уменьшить масштаб, щелкните зеленую кнопку с тире; для просмотра соседних карт щелкайте зеленые стрелки.


METAR-TAF: